Time;durP1;ratioP1;P1;durP2;ratioP2;P2;SDS_P1;SDS_P2;PMS_P1;PMS_P2;Temp;Humidity;BMP_temperature;BMP_pressure;BME280_temperature;BME280_humidity;BME280_pressure;Samples;Min_cycle;Max_cycle;Signal;HPM_P1;HPM_P2
2022/06/24 00:01:40;;;;;;;2.60;2.40;;;;;;;;;;5014399;28;20219;-74
2022/06/24 00:04:08;;;;;;;3.75;2.13;;;;;;;;;;5014765;28;20220;-74
2022/06/24 00:06:46;;;;;;;2.17;2.00;;;;;;;;;;5023292;28;20252;-74
2022/06/24 00:09:15;;;;;;;4.03;2.05;;;;;;;;;;5025443;28;20693;-74
2022/06/24 00:11:40;;;;;;;2.10;2.00;;;;;;;;;;4994483;28;20235;-74
2022/06/24 00:14:08;;;;;;;2.20;2.10;;;;;;;;;;5005643;28;20231;-74
2022/06/24 00:16:55;;;;;;;2.22;1.95;;;;;;;;;;5040792;28;20288;-74
2022/06/24 00:19:21;;;;;;;3.30;1.85;;;;;;;;;;5040992;28;20691;-74
2022/06/24 00:22:11;;;;;;;3.95;2.22;;;;;;;;;;5017473;28;20223;-74
2022/06/24 00:24:38;;;;;;;2.47;2.22;;;;;;;;;;5022392;28;20219;-75
2022/06/24 00:27:04;;;;;;;2.28;2.00;;;;;;;;;;5014563;28;20224;-75
2022/06/24 00:29:35;;;;;;;2.00;1.90;;;;;;;;;;5005424;28;20260;-75
2022/06/24 00:32:05;;;;;;;2.30;2.10;;;;;;;;;;5010434;28;20224;-75
2022/06/24 00:34:32;;;;;;;2.25;2.05;;;;;;;;;;5029517;28;20242;-75
2022/06/24 00:36:57;;;;;;;2.20;2.08;;;;;;;;;;4992497;28;20254;-75
2022/06/24 00:39:38;;;;;;;4.88;2.05;;;;;;;;;;4996717;28;20227;-75
2022/06/24 00:42:05;;;;;;;2.05;1.85;;;;;;;;;;4994169;28;20285;-76
2022/06/24 00:44:42;;;;;;;2.10;1.95;;;;;;;;;;4994241;28;20275;-75
2022/06/24 00:47:07;;;;;;;3.22;1.90;;;;;;;;;;4991065;28;20625;-76
2022/06/24 00:49:33;;;;;;;2.55;1.80;;;;;;;;;;5021834;28;20225;-75
2022/06/24 00:51:58;;;;;;;4.30;1.88;;;;;;;;;;5022144;28;20212;-75
2022/06/24 00:54:28;;;;;;;2.83;1.85;;;;;;;;;;4994540;28;20216;-75
2022/06/24 00:56:56;;;;;;;2.55;2.10;;;;;;;;;;5001814;28;20712;-75
2022/06/24 00:59:22;;;;;;;2.03;1.88;;;;;;;;;;5010199;28;20745;-75
2022/06/24 01:01:50;;;;;;;2.33;2.17;;;;;;;;;;4992841;28;20216;-75
2022/06/24 01:04:19;;;;;;;2.33;2.13;;;;;;;;;;4978376;28;20725;-75
2022/06/24 01:06:47;;;;;;;4.43;2.10;;;;;;;;;;5026891;28;20219;-75
2022/06/24 01:09:19;;;;;;;3.45;1.90;;;;;;;;;;5015439;28;20223;-75
2022/06/24 01:11:47;;;;;;;2.90;2.00;;;;;;;;;;5001583;28;20639;-74
2022/06/24 01:14:13;;;;;;;2.72;2.05;;;;;;;;;;5044864;28;20215;-74
2022/06/24 01:16:41;;;;;;;2.58;1.98;;;;;;;;;;5007806;28;20242;-74
2022/06/24 01:19:10;;;;;;;2.28;1.90;;;;;;;;;;5029706;28;20251;-75
2022/06/24 01:21:42;;;;;;;3.28;2.00;;;;;;;;;;5025102;28;20227;-74
2022/06/24 01:24:08;;;;;;;2.33;2.10;;;;;;;;;;5026513;28;20583;-75
2022/06/24 01:26:37;;;;;;;2.67;1.98;;;;;;;;;;5006037;28;20217;-75
2022/06/24 01:29:03;;;;;;;2.17;1.98;;;;;;;;;;4993084;28;20278;-75
2022/06/24 01:31:31;;;;;;;3.03;2.13;;;;;;;;;;5009924;28;20236;-74
2022/06/24 01:33:59;;;;;;;2.10;1.90;;;;;;;;;;5025899;28;20238;-75
2022/06/24 01:36:29;;;;;;;2.38;2.03;;;;;;;;;;5013845;28;20219;-75
2022/06/24 01:38:57;;;;;;;2.25;2.00;;;;;;;;;;5046663;28;20704;-74
2022/06/24 01:41:22;;;;;;;2.20;2.00;;;;;;;;;;5039863;28;20224;-74
2022/06/24 01:43:50;;;;;;;2.20;2.10;;;;;;;;;;5013335;28;20215;-74
2022/06/24 01:46:16;;;;;;;2.10;2.00;;;;;;;;;;5024393;28;20322;-73
2022/06/24 01:48:44;;;;;;;2.10;1.90;;;;;;;;;;5029263;28;20224;-74
2022/06/24 01:51:14;;;;;;;2.25;2.08;;;;;;;;;;5026395;28;20802;-74
2022/06/24 01:53:44;;;;;;;2.20;2.00;;;;;;;;;;5002530;28;20223;-74
2022/06/24 01:56:09;;;;;;;2.95;2.15;;;;;;;;;;5009589;28;20302;-75
2022/06/24 01:58:37;;;;;;;1.95;1.85;;;;;;;;;;5006184;28;20594;-74
2022/06/24 02:01:03;;;;;;;2.42;2.22;;;;;;;;;;5022503;28;20629;-74
2022/06/24 02:03:31;;;;;;;4.93;2.17;;;;;;;;;;5038854;28;20266;-74
2022/06/24 02:06:04;;;;;;;2.47;1.90;;;;;;;;;;4987257;28;20998;-74
2022/06/24 02:08:30;;;;;;;2.28;1.98;;;;;;;;;;5008314;28;20228;-74
2022/06/24 02:13:43;;;;;;;2.22;2.00;;;;;;;;;;5030565;28;20227;-75
2022/06/24 02:16:09;;;;;;;2.50;2.22;;;;;;;;;;5001524;28;20215;-75
2022/06/24 02:18:37;;;;;;;3.00;1.95;;;;;;;;;;5022942;28;20289;-74
2022/06/24 02:21:05;;;;;;;2.65;1.90;;;;;;;;;;5033392;28;20821;-75
2022/06/24 02:23:30;;;;;;;2.67;2.17;;;;;;;;;;5013084;28;20699;-74
2022/06/24 02:25:58;;;;;;;5.13;2.17;;;;;;;;;;5025990;28;20216;-74
2022/06/24 02:28:24;;;;;;;2.33;2.10;;;;;;;;;;5007456;28;20232;-74
2022/06/24 02:30:56;;;;;;;2.67;2.13;;;;;;;;;;5023638;28;20211;-74
2022/06/24 02:33:26;;;;;;;2.03;1.90;;;;;;;;;;5028536;28;20788;-74
2022/06/24 02:35:54;;;;;;;2.40;2.10;;;;;;;;;;5023082;28;20531;-74
2022/06/24 02:38:25;;;;;;;2.25;2.00;;;;;;;;;;5007245;28;20237;-74
2022/06/24 02:40:53;;;;;;;4.38;2.08;;;;;;;;;;5006437;28;20306;-75
2022/06/24 02:43:22;;;;;;;2.47;2.10;;;;;;;;;;5019500;28;20231;-74
2022/06/24 02:45:54;;;;;;;2.97;2.03;;;;;;;;;;5018602;28;20227;-74
2022/06/24 02:48:21;;;;;;;2.20;2.00;;;;;;;;;;5003661;28;20302;-74
2022/06/24 02:51:00;;;;;;;3.00;1.95;;;;;;;;;;5030124;28;20224;-74
2022/06/24 02:53:29;;;;;;;2.50;2.15;;;;;;;;;;5028454;28;20596;-74
2022/06/24 02:55:59;;;;;;;3.13;2.42;;;;;;;;;;5018629;28;20220;-74
2022/06/24 02:58:27;;;;;;;2.83;2.33;;;;;;;;;;5004534;28;20232;-74
2022/06/24 03:00:57;;;;;;;3.15;2.20;;;;;;;;;;5011276;28;20224;-75
2022/06/24 03:03:23;;;;;;;3.78;2.20;;;;;;;;;;5004992;28;20224;-74
2022/06/24 03:05:51;;;;;;;3.92;2.15;;;;;;;;;;5041662;28;20310;-74
2022/06/24 03:08:21;;;;;;;2.30;2.10;;;;;;;;;;5036853;28;20231;-74
2022/06/24 03:10:49;;;;;;;3.10;2.30;;;;;;;;;;4998810;28;20369;-74
2022/06/24 03:13:17;;;;;;;2.30;2.15;;;;;;;;;;5027889;28;20212;-74
2022/06/24 03:15:48;;;;;;;2.50;2.30;;;;;;;;;;5010856;28;20224;-74
2022/06/24 03:18:14;;;;;;;3.28;2.05;;;;;;;;;;5006607;28;20231;-74
2022/06/24 03:20:40;;;;;;;3.35;2.15;;;;;;;;;;4991358;28;20223;-74
2022/06/24 03:23:10;;;;;;;3.30;2.08;;;;;;;;;;4990330;28;20220;-75
2022/06/24 03:25:37;;;;;;;3.42;2.25;;;;;;;;;;5016153;28;20698;-75
2022/06/24 03:28:04;;;;;;;2.53;2.33;;;;;;;;;;4981215;28;20278;-74
2022/06/24 03:30:30;;;;;;;2.38;2.17;;;;;;;;;;5020883;28;20234;-75
2022/06/24 03:33:00;;;;;;;2.17;1.90;;;;;;;;;;5043570;28;20212;-74
2022/06/24 03:35:30;;;;;;;2.47;2.28;;;;;;;;;;5022509;28;20677;-74
2022/06/24 03:37:59;;;;;;;2.60;1.90;;;;;;;;;;5021016;28;20223;-75
2022/06/24 03:40:29;;;;;;;2.45;2.25;;;;;;;;;;5023690;28;20248;-74
2022/06/24 03:42:54;;;;;;;3.42;2.40;;;;;;;;;;5027127;28;20239;-74
2022/06/24 03:45:24;;;;;;;3.38;2.17;;;;;;;;;;5032072;28;20231;-74
2022/06/24 03:47:50;;;;;;;2.60;2.40;;;;;;;;;;5031274;28;20223;-74
2022/06/24 03:50:17;;;;;;;2.15;2.03;;;;;;;;;;5030970;28;20269;-74
2022/06/24 03:52:46;;;;;;;4.45;2.70;;;;;;;;;;5006303;28;20250;-73
2022/06/24 03:55:11;;;;;;;3.78;2.60;;;;;;;;;;5030995;28;20339;-74
2022/06/24 03:57:37;;;;;;;2.30;2.10;;;;;;;;;;5020698;28;20224;-74
2022/06/24 04:00:07;;;;;;;2.40;2.20;;;;;;;;;;5019424;28;20228;-75
2022/06/24 04:02:37;;;;;;;2.95;2.40;;;;;;;;;;5022751;28;20619;-75
2022/06/24 04:05:07;;;;;;;2.80;2.20;;;;;;;;;;5014549;28;20227;-74
2022/06/24 04:07:35;;;;;;;2.72;2.17;;;;;;;;;;5034999;28;20240;-76
2022/06/24 04:10:01;;;;;;;2.97;2.28;;;;;;;;;;5007879;28;20230;-75
2022/06/24 04:12:26;;;;;;;2.25;2.05;;;;;;;;;;5027954;28;20228;-75
2022/06/24 04:17:40;;;;;;;2.67;2.25;;;;;;;;;;5034646;28;20219;-75
2022/06/24 04:20:08;;;;;;;3.15;2.42;;;;;;;;;;5005782;28;20240;-75
2022/06/24 04:22:38;;;;;;;2.30;2.10;;;;;;;;;;5028071;28;20228;-75
2022/06/24 04:25:04;;;;;;;2.50;2.30;;;;;;;;;;5027602;28;20274;-74
2022/06/24 04:27:34;;;;;;;4.68;2.70;;;;;;;;;;5045826;28;20226;-75
2022/06/24 04:30:09;;;;;;;2.42;2.00;;;;;;;;;;5045223;28;20223;-75
2022/06/24 04:32:34;;;;;;;2.45;2.10;;;;;;;;;;5024679;28;20224;-75
2022/06/24 04:35:05;;;;;;;3.47;2.33;;;;;;;;;;5010041;28;20289;-75
2022/06/24 04:37:30;;;;;;;3.95;2.50;;;;;;;;;;5025953;28;20227;-75
2022/06/24 04:40:01;;;;;;;4.05;2.25;;;;;;;;;;5028590;28;20224;-75
2022/06/24 04:42:27;;;;;;;2.55;2.35;;;;;;;;;;5021820;28;20293;-75
2022/06/24 04:44:55;;;;;;;4.15;2.40;;;;;;;;;;5009446;28;20690;-75
2022/06/24 04:47:25;;;;;;;4.25;2.50;;;;;;;;;;5042722;28;20290;-74
2022/06/24 04:49:50;;;;;;;3.15;2.50;;;;;;;;;;5005457;28;20232;-75
2022/06/24 04:52:16;;;;;;;2.72;2.35;;;;;;;;;;5016683;28;20223;-74
2022/06/24 04:54:42;;;;;;;2.70;2.50;;;;;;;;;;5008244;28;20237;-75
2022/06/24 04:57:12;;;;;;;2.78;2.55;;;;;;;;;;5011947;28;20323;-74
2022/06/24 04:59:40;;;;;;;2.90;2.70;;;;;;;;;;5016026;28;20232;-73
2022/06/24 05:02:06;;;;;;;2.90;2.40;;;;;;;;;;4996602;28;20231;-72
2022/06/24 05:04:34;;;;;;;3.67;2.60;;;;;;;;;;5038820;28;20286;-72
2022/06/24 05:07:02;;;;;;;3.17;2.75;;;;;;;;;;5035303;28;20219;-72
2022/06/24 05:09:30;;;;;;;5.05;2.80;;;;;;;;;;5024022;28;20227;-71
2022/06/24 05:11:58;;;;;;;5.32;2.90;;;;;;;;;;5010564;28;20559;-76
2022/06/24 05:14:24;;;;;;;2.80;2.58;;;;;;;;;;4989188;28;20755;-76
2022/06/24 05:16:52;;;;;;;2.88;2.67;;;;;;;;;;5017487;28;20306;-75
2022/06/24 05:19:20;;;;;;;4.55;2.58;;;;;;;;;;5025216;28;20319;-76
2022/06/24 05:21:45;;;;;;;5.93;2.60;;;;;;;;;;5009247;28;20216;-75
2022/06/24 05:24:14;;;;;;;3.72;2.47;;;;;;;;;;5006592;28;21125;-76
2022/06/24 05:26:43;;;;;;;2.90;2.53;;;;;;;;;;5023703;28;20215;-76
2022/06/24 05:29:09;;;;;;;3.67;2.60;;;;;;;;;;5002927;28;20243;-75
2022/06/24 05:31:34;;;;;;;2.83;2.50;;;;;;;;;;5017843;28;20224;-76
2022/06/24 05:34:02;;;;;;;3.10;2.60;;;;;;;;;;5003579;28;20219;-76
2022/06/24 05:36:28;;;;;;;3.33;2.70;;;;;;;;;;5023728;28;20224;-75
2022/06/24 05:38:56;;;;;;;4.32;2.80;;;;;;;;;;5009736;28;20285;-76
2022/06/24 05:41:29;;;;;;;3.00;2.80;;;;;;;;;;5032317;28;20294;-76
2022/06/24 05:43:57;;;;;;;3.78;2.70;;;;;;;;;;5008849;28;20982;-75
2022/06/24 05:46:23;;;;;;;5.18;2.67;;;;;;;;;;5027710;28;20853;-75
2022/06/24 05:48:50;;;;;;;4.15;2.92;;;;;;;;;;5035848;28;20330;-75
2022/06/24 05:51:20;;;;;;;3.05;2.83;;;;;;;;;;5025028;28;20212;-76
2022/06/24 05:56:31;;;;;;;2.97;2.78;;;;;;;;;;5047097;23;20708;-84
2022/06/24 05:58:57;;;;;;;4.05;2.90;;;;;;;;;;5020472;28;20220;-83
2022/06/24 06:01:23;;;;;;;4.07;2.70;;;;;;;;;;5000839;28;20232;-81
2022/06/24 06:03:51;;;;;;;3.95;2.78;;;;;;;;;;4996016;28;20220;-82
2022/06/24 06:06:16;;;;;;;3.53;2.63;;;;;;;;;;5005970;28;20299;-80
2022/06/24 06:09:18;;;;;;;3.53;2.85;;;;;;;;;;5008960;28;20216;-77
2022/06/24 06:11:46;;;;;;;2.80;2.60;;;;;;;;;;5037001;28;20211;-84
2022/06/24 06:14:12;;;;;;;3.20;3.00;;;;;;;;;;4997049;28;20221;-83
2022/06/24 06:16:37;;;;;;;5.30;2.70;;;;;;;;;;4999512;28;20222;-82
2022/06/24 06:19:03;;;;;;;4.53;3.05;;;;;;;;;;4992519;28;20237;-83
2022/06/24 06:21:33;;;;;;;3.30;3.00;;;;;;;;;;5014463;28;20244;-82
2022/06/24 06:24:04;;;;;;;3.92;2.90;;;;;;;;;;5013496;28;20728;-80
2022/06/24 06:26:30;;;;;;;3.35;3.05;;;;;;;;;;4997879;28;20224;-81
2022/06/24 06:28:56;;;;;;;3.78;2.85;;;;;;;;;;4981742;28;20220;-80
2022/06/24 06:31:22;;;;;;;3.85;2.75;;;;;;;;;;4998616;28;20239;-80
2022/06/24 06:33:47;;;;;;;3.30;3.00;;;;;;;;;;4996685;28;20343;-80
2022/06/24 06:36:15;;;;;;;5.85;2.80;;;;;;;;;;4998676;28;20281;-82
2022/06/24 06:38:41;;;;;;;4.07;3.05;;;;;;;;;;4991898;28;20246;-86
2022/06/24 06:41:08;;;;;;;3.63;2.80;;;;;;;;;;5007622;28;20224;-78
2022/06/24 06:43:34;;;;;;;3.35;3.05;;;;;;;;;;5020876;28;20285;-82
2022/06/24 06:45:59;;;;;;;5.13;3.08;;;;;;;;;;4992827;28;20224;-82
2022/06/24 06:48:25;;;;;;;6.45;3.30;;;;;;;;;;5008600;28;20243;-83
2022/06/24 06:50:57;;;;;;;3.13;2.83;;;;;;;;;;4998651;28;20588;-80
2022/06/24 06:53:24;;;;;;;3.05;2.75;;;;;;;;;;4979691;28;20248;-79
2022/06/24 06:55:50;;;;;;;3.40;2.95;;;;;;;;;;4997584;28;20252;-80
2022/06/24 06:58:16;;;;;;;3.72;3.00;;;;;;;;;;4992184;28;20263;-81
2022/06/24 07:00:41;;;;;;;4.10;2.85;;;;;;;;;;5012403;28;20221;-81
2022/06/24 07:03:09;;;;;;;4.50;2.80;;;;;;;;;;5010743;28;20220;-82
2022/06/24 07:05:34;;;;;;;4.45;3.10;;;;;;;;;;5000935;28;20282;-80
2022/06/24 07:08:00;;;;;;;3.90;2.75;;;;;;;;;;5010415;28;20304;-82
2022/06/24 07:10:25;;;;;;;3.22;2.90;;;;;;;;;;5017352;28;20269;-80
2022/06/24 07:12:51;;;;;;;3.42;2.90;;;;;;;;;;5008536;28;20685;-80
2022/06/24 07:15:19;;;;;;;3.28;3.00;;;;;;;;;;5024402;28;20567;-80
2022/06/24 07:17:45;;;;;;;4.18;3.38;;;;;;;;;;5033545;28;20225;-79
2022/06/24 07:20:11;;;;;;;3.35;3.10;;;;;;;;;;5003321;28;20223;-80
2022/06/24 07:22:36;;;;;;;3.88;3.20;;;;;;;;;;5019493;28;20292;-77
2022/06/24 07:25:02;;;;;;;3.13;2.63;;;;;;;;;;5005734;28;20315;-79
2022/06/24 07:27:27;;;;;;;4.72;3.13;;;;;;;;;;5006522;28;20228;-83
2022/06/24 07:29:53;;;;;;;4.18;2.95;;;;;;;;;;5011204;28;20622;-81
2022/06/24 07:32:18;;;;;;;3.50;3.20;;;;;;;;;;4994856;28;20229;-83
2022/06/24 07:38:34;;;;;;;5.35;3.20;;;;;;;;;;5034739;28;20231;-85
2022/06/24 07:41:02;;;;;;;3.75;3.15;;;;;;;;;;4998183;28;20212;-83
2022/06/24 07:43:28;;;;;;;4.28;3.00;;;;;;;;;;5014963;28;20216;-82
2022/06/24 07:45:53;;;;;;;3.50;3.08;;;;;;;;;;5019817;28;20227;-82
2022/06/24 07:48:21;;;;;;;3.13;2.83;;;;;;;;;;5025645;28;20228;-82
2022/06/24 07:50:47;;;;;;;3.67;3.38;;;;;;;;;;5025942;28;20216;-82
2022/06/24 07:53:12;;;;;;;5.22;3.33;;;;;;;;;;5005910;28;20220;-79
2022/06/24 07:58:24;;;;;;;6.13;3.13;;;;;;;;;;5031022;28;22687;-82
2022/06/24 08:00:50;;;;;;;4.03;3.13;;;;;;;;;;5016219;28;20221;-81
2022/06/24 08:03:17;;;;;;;5.05;3.28;;;;;;;;;;5035363;28;20231;-80
2022/06/24 08:05:43;;;;;;;4.25;3.00;;;;;;;;;;4987196;28;20229;-81
2022/06/24 08:08:12;;;;;;;3.38;3.13;;;;;;;;;;5015079;28;20224;-81
2022/06/24 08:10:39;;;;;;;3.30;2.85;;;;;;;;;;5033709;28;20219;-79
2022/06/24 08:13:05;;;;;;;3.60;3.30;;;;;;;;;;5022212;28;20239;-81
2022/06/24 08:15:30;;;;;;;4.60;3.60;;;;;;;;;;5048300;28;20306;-81
2022/06/24 08:17:58;;;;;;;3.58;3.28;;;;;;;;;;5021927;28;20221;-81
2022/06/24 08:20:24;;;;;;;3.63;3.28;;;;;;;;;;5029110;28;21494;-80
2022/06/24 08:22:49;;;;;;;3.13;2.85;;;;;;;;;;5026972;28;20232;-81
2022/06/24 08:25:15;;;;;;;4.10;3.10;;;;;;;;;;5033046;28;20226;-82
2022/06/24 08:27:40;;;;;;;5.45;3.42;;;;;;;;;;5018525;28;20224;-79
2022/06/24 08:30:07;;;;;;;5.15;3.72;;;;;;;;;;5023675;28;20217;-83
2022/06/24 08:32:32;;;;;;;5.13;3.35;;;;;;;;;;5027108;28;20230;-82
2022/06/24 08:34:58;;;;;;;6.53;3.53;;;;;;;;;;5029621;28;20592;-84
2022/06/24 08:37:25;;;;;;;3.78;3.47;;;;;;;;;;5019446;28;20207;-79
2022/06/24 08:39:51;;;;;;;4.03;3.40;;;;;;;;;;5035808;28;20253;-83
2022/06/24 08:42:18;;;;;;;4.07;3.67;;;;;;;;;;5045663;28;20345;-82
2022/06/24 08:44:46;;;;;;;3.80;3.50;;;;;;;;;;5010442;28;20236;-82
2022/06/24 08:47:14;;;;;;;6.53;3.53;;;;;;;;;;5004083;28;20220;-83
2022/06/24 08:49:40;;;;;;;3.70;3.40;;;;;;;;;;5005366;28;20315;-81
2022/06/24 08:52:05;;;;;;;4.32;3.25;;;;;;;;;;5041306;28;20225;-81
2022/06/24 08:54:33;;;;;;;3.80;3.50;;;;;;;;;;4996835;28;20221;-82
2022/06/24 08:56:59;;;;;;;3.75;3.45;;;;;;;;;;5032009;28;20225;-81
2022/06/24 08:59:27;;;;;;;4.47;3.42;;;;;;;;;;5006803;28;20239;-80
2022/06/24 09:01:52;;;;;;;5.07;3.25;;;;;;;;;;5026859;28;20250;-80
2022/06/24 09:04:28;;;;;;;4.03;3.63;;;;;;;;;;5000558;28;20231;-84
2022/06/24 09:06:54;;;;;;;7.57;3.47;;;;;;;;;;5016908;28;20220;-84
2022/06/24 09:13:40;;;;;;;4.53;3.55;;;;;;;;;;5027872;28;20231;-80
2022/06/24 09:16:07;;;;;;;4.10;3.47;;;;;;;;;;5038723;28;20283;-82
2022/06/24 09:18:32;;;;;;;4.50;3.55;;;;;;;;;;5033169;28;20644;-80
2022/06/24 09:20:58;;;;;;;4.97;3.17;;;;;;;;;;5028272;28;20217;-81
2022/06/24 09:23:23;;;;;;;5.10;3.47;;;;;;;;;;5017649;28;20328;-80
2022/06/24 09:25:54;;;;;;;5.07;3.08;;;;;;;;;;5015626;28;20221;-82
2022/06/24 09:28:29;;;;;;;3.58;3.10;;;;;;;;;;4992708;28;20292;-77
2022/06/24 09:31:02;;;;;;;3.63;3.33;;;;;;;;;;5015225;28;20266;-81
2022/06/24 09:33:28;;;;;;;6.75;3.13;;;;;;;;;;5022299;28;20235;-81
2022/06/24 09:36:00;;;;;;;5.38;3.88;;;;;;;;;;5011348;28;20213;-82
2022/06/24 09:38:29;;;;;;;3.90;3.45;;;;;;;;;;4990725;28;20227;-81
2022/06/24 09:41:04;;;;;;;3.28;3.08;;;;;;;;;;5009162;28;20267;-80
2022/06/24 09:43:32;;;;;;;4.25;3.25;;;;;;;;;;5000431;28;20239;-81
2022/06/24 09:45:58;;;;;;;5.15;3.45;;;;;;;;;;5018414;28;20315;-81
2022/06/24 09:48:30;;;;;;;4.53;3.70;;;;;;;;;;5050184;28;20224;-83
2022/06/24 09:51:00;;;;;;;5.57;3.50;;;;;;;;;;5041872;28;20688;-84
2022/06/24 09:53:26;;;;;;;4.97;3.55;;;;;;;;;;4989700;28;20248;-84
2022/06/24 09:55:54;;;;;;;6.78;3.60;;;;;;;;;;5011399;28;20220;-84
2022/06/24 09:58:20;;;;;;;8.32;3.45;;;;;;;;;;5025185;28;20235;-84
2022/06/24 10:00:49;;;;;;;7.32;3.38;;;;;;;;;;5004604;28;20228;-85
2022/06/24 10:03:15;;;;;;;4.03;3.40;;;;;;;;;;5017726;28;20220;-84
2022/06/24 10:05:50;;;;;;;4.00;3.60;;;;;;;;;;5021028;28;20219;-83
2022/06/24 10:08:18;;;;;;;4.32;3.55;;;;;;;;;;5007469;28;20223;-82
2022/06/24 10:10:53;;;;;;;4.05;3.08;;;;;;;;;;4983911;28;20288;-86
2022/06/24 10:13:25;;;;;;;4.50;3.50;;;;;;;;;;5018663;28;20615;-85
2022/06/24 10:15:51;;;;;;;4.85;3.63;;;;;;;;;;5028464;28;20219;-84
2022/06/24 10:18:21;;;;;;;4.28;3.42;;;;;;;;;;5031272;28;20221;-82
2022/06/24 10:20:49;;;;;;;4.78;3.47;;;;;;;;;;4992285;28;20291;-83
2022/06/24 10:23:46;;;;;;;4.18;3.50;;;;;;;;;;5000972;28;20332;-85
2022/06/24 10:26:14;;;;;;;4.25;3.80;;;;;;;;;;5037974;28;20216;-84
2022/06/24 10:28:59;;;;;;;4.30;3.53;;;;;;;;;;5020340;28;20263;-85
2022/06/24 10:31:43;;;;;;;4.57;3.75;;;;;;;;;;5018460;28;20226;-82
2022/06/24 10:34:09;;;;;;;3.72;3.33;;;;;;;;;;5025399;28;20224;-85
2022/06/24 10:36:35;;;;;;;4.68;3.60;;;;;;;;;;5004371;28;20211;-84
2022/06/24 10:39:09;;;;;;;5.05;3.63;;;;;;;;;;5020230;28;20243;-85
2022/06/24 10:41:43;;;;;;;3.55;3.25;;;;;;;;;;5026318;28;20227;-84
2022/06/24 10:44:21;;;;;;;3.60;3.30;;;;;;;;;;5000810;28;20223;-83
2022/06/24 10:46:49;;;;;;;5.75;3.63;;;;;;;;;;5017423;28;20220;-82
2022/06/24 10:49:14;;;;;;;3.90;3.58;;;;;;;;;;4985024;28;20763;-85
2022/06/24 10:51:40;;;;;;;4.18;3.72;;;;;;;;;;5004095;28;20220;-82
2022/06/24 10:54:09;;;;;;;3.40;3.10;;;;;;;;;;5016058;28;20216;-83
2022/06/24 10:56:47;;;;;;;4.93;3.80;;;;;;;;;;5027436;28;20304;-86
2022/06/24 10:59:16;;;;;;;4.80;3.53;;;;;;;;;;5014058;28;20228;-84
2022/06/24 11:01:46;;;;;;;4.95;3.53;;;;;;;;;;5031242;28;20274;-82
2022/06/24 11:04:19;;;;;;;5.20;3.75;;;;;;;;;;5012238;28;20217;-85
2022/06/24 11:07:13;;;;;;;4.30;3.85;;;;;;;;;;5007547;28;20224;-83
2022/06/24 11:09:38;;;;;;;5.40;3.40;;;;;;;;;;5030734;28;20231;-84
2022/06/24 11:12:04;;;;;;;5.63;3.10;;;;;;;;;;5035444;28;20203;-84
2022/06/24 11:14:30;;;;;;;4.68;2.80;;;;;;;;;;5053012;28;20222;-83
2022/06/24 11:16:58;;;;;;;3.25;2.63;;;;;;;;;;5038161;28;20200;-82
2022/06/24 11:19:26;;;;;;;3.47;2.60;;;;;;;;;;5028367;28;20223;-83
2022/06/24 11:21:51;;;;;;;4.90;2.85;;;;;;;;;;5033709;28;20212;-82
2022/06/24 11:24:22;;;;;;;4.13;2.85;;;;;;;;;;5044508;28;20311;-83
2022/06/24 11:27:07;;;;;;;5.35;3.03;;;;;;;;;;5029242;28;20219;-82
2022/06/24 11:30:08;;;;;;;3.20;2.60;;;;;;;;;;5042431;28;20215;-85
2022/06/24 11:32:59;;;;;;;3.53;2.60;;;;;;;;;;5014546;28;20231;-84
2022/06/24 11:35:25;;;;;;;4.72;2.63;;;;;;;;;;5026281;28;20216;-85
2022/06/24 11:37:50;;;;;;;4.10;2.63;;;;;;;;;;5026084;28;20249;-83
2022/06/24 11:40:26;;;;;;;3.17;2.88;;;;;;;;;;5029518;28;20224;-86
2022/06/24 11:42:52;;;;;;;5.00;3.03;;;;;;;;;;5022035;28;20219;-84
2022/06/24 11:45:36;;;;;;;4.45;3.03;;;;;;;;;;5008151;28;20704;-84
2022/06/24 11:48:03;;;;;;;3.30;3.00;;;;;;;;;;5024652;28;20220;-84
2022/06/24 11:50:28;;;;;;;3.72;2.95;;;;;;;;;;5030708;28;20230;-85
2022/06/24 11:52:58;;;;;;;4.20;2.90;;;;;;;;;;5025547;28;20221;-84
2022/06/24 11:55:30;;;;;;;4.40;3.15;;;;;;;;;;5020902;28;20223;-83
2022/06/24 11:57:56;;;;;;;5.95;3.00;;;;;;;;;;5048545;28;20220;-82
2022/06/24 12:00:23;;;;;;;5.85;3.05;;;;;;;;;;5030659;28;20220;-83
2022/06/24 12:02:51;;;;;;;8.35;3.30;;;;;;;;;;5036520;23;20221;-77
2022/06/24 12:05:17;;;;;;;5.18;3.45;;;;;;;;;;4999756;28;20714;-78
2022/06/24 12:07:43;;;;;;;3.83;3.13;;;;;;;;;;5038626;28;20228;-78
2022/06/24 12:10:14;;;;;;;5.07;3.55;;;;;;;;;;4995982;28;20221;-78
2022/06/24 12:12:55;;;;;;;6.40;3.58;;;;;;;;;;4987450;28;20753;-77
2022/06/24 12:15:34;;;;;;;3.88;3.40;;;;;;;;;;5005186;28;20227;-78
2022/06/24 12:18:00;;;;;;;5.55;3.83;;;;;;;;;;5014334;28;20229;-77
2022/06/24 12:20:29;;;;;;;5.22;4.00;;;;;;;;;;5031241;28;20833;-82
2022/06/24 12:23:19;;;;;;;4.53;3.72;;;;;;;;;;4998219;28;20227;-79
2022/06/24 12:25:50;;;;;;;5.55;3.95;;;;;;;;;;4991113;28;20217;-79
2022/06/24 12:28:20;;;;;;;4.28;3.88;;;;;;;;;;5000952;28;20232;-76
2022/06/24 12:31:07;;;;;;;4.97;3.80;;;;;;;;;;5004986;28;20217;-75
2022/06/24 12:33:34;;;;;;;5.22;4.20;;;;;;;;;;5017660;28;20231;-78
2022/06/24 12:36:09;;;;;;;7.38;3.90;;;;;;;;;;5000637;28;20214;-73
2022/06/24 12:38:40;;;;;;;4.93;4.35;;;;;;;;;;5002501;28;20243;-77
2022/06/24 12:41:09;;;;;;;5.32;3.75;;;;;;;;;;5003342;28;20233;-78
2022/06/24 12:43:35;;;;;;;4.60;3.83;;;;;;;;;;5018494;28;20225;-81
2022/06/24 12:46:03;;;;;;;9.32;3.92;;;;;;;;;;5003123;28;20543;-76
2022/06/24 12:51:15;;;;;;;4.10;3.10;;;;;;;;;;5002314;28;20231;-75
2022/06/24 12:53:45;;;;;;;3.22;2.72;;;;;;;;;;4990958;28;20246;-76
2022/06/24 12:56:13;;;;;;;4.43;3.53;;;;;;;;;;4998826;28;20239;-77
2022/06/24 12:58:41;;;;;;;4.30;3.00;;;;;;;;;;4987707;28;20253;-74
2022/06/24 13:01:09;;;;;;;3.70;2.60;;;;;;;;;;5001742;28;20216;-75
2022/06/24 13:03:34;;;;;;;6.85;2.67;;;;;;;;;;5013069;28;20612;-74
2022/06/24 13:06:02;;;;;;;4.53;2.70;;;;;;;;;;5003328;28;20266;-77
2022/06/24 13:08:27;;;;;;;4.13;2.67;;;;;;;;;;5013386;28;20233;-74
2022/06/24 13:10:53;;;;;;;5.10;2.40;;;;;;;;;;4998885;28;20243;-72
2022/06/24 13:13:23;;;;;;;4.07;2.60;;;;;;;;;;4983451;28;20233;-75
2022/06/24 13:15:53;;;;;;;5.00;3.03;;;;;;;;;;4998643;28;20275;-74
2022/06/24 13:18:19;;;;;;;7.05;2.92;;;;;;;;;;5017746;28;20709;-74
2022/06/24 13:20:45;;;;;;;5.40;2.80;;;;;;;;;;5000968;28;20222;-75
2022/06/24 13:23:12;;;;;;;6.95;3.10;;;;;;;;;;5016793;28;20216;-76
2022/06/24 13:25:43;;;;;;;6.20;3.60;;;;;;;;;;5000549;28;20224;-73
2022/06/24 13:28:11;;;;;;;3.72;2.90;;;;;;;;;;4999746;28;20248;-78
2022/06/24 13:30:36;;;;;;;6.10;3.00;;;;;;;;;;4988824;28;20248;-75
2022/06/24 13:33:04;;;;;;;4.50;2.97;;;;;;;;;;4999704;28;20221;-72
2022/06/24 13:35:32;;;;;;;4.40;2.88;;;;;;;;;;5000034;28;20220;-70
2022/06/24 13:38:00;;;;;;;4.57;2.85;;;;;;;;;;5018901;28;20316;-74
2022/06/24 13:40:28;;;;;;;5.22;2.88;;;;;;;;;;5014647;28;20641;-74
2022/06/24 13:42:56;;;;;;;3.97;2.47;;;;;;;;;;5003576;28;20225;-74
2022/06/24 13:45:24;;;;;;;2.53;2.25;;;;;;;;;;4999515;28;20694;-74
2022/06/24 13:47:52;;;;;;;3.40;2.15;;;;;;;;;;5004431;28;20695;-73
2022/06/24 13:50:20;;;;;;;2.97;2.15;;;;;;;;;;4994563;28;20277;-72
2022/06/24 13:52:45;;;;;;;2.88;1.98;;;;;;;;;;4998221;28;20240;-72
2022/06/24 13:55:11;;;;;;;4.13;2.22;;;;;;;;;;4985497;28;20216;-76
2022/06/24 13:57:36;;;;;;;4.25;2.53;;;;;;;;;;4971467;28;20241;-73
2022/06/24 14:00:04;;;;;;;3.85;2.05;;;;;;;;;;5011931;28;20229;-75
2022/06/24 14:02:38;;;;;;;3.67;2.00;;;;;;;;;;4987975;28;20232;-74
2022/06/24 14:05:03;;;;;;;3.85;2.15;;;;;;;;;;4989871;28;20549;-72
2022/06/24 14:07:31;;;;;;;4.95;2.10;;;;;;;;;;4999280;28;20221;-75
2022/06/24 14:10:00;;;;;;;2.38;2.10;;;;;;;;;;4999854;28;20255;-75
2022/06/24 14:12:27;;;;;;;2.40;1.98;;;;;;;;;;5019092;28;20240;-72
2022/06/24 14:14:55;;;;;;;3.45;2.35;;;;;;;;;;5004379;28;20275;-72
2022/06/24 14:17:23;;;;;;;3.22;2.25;;;;;;;;;;5014758;28;20239;-74
2022/06/24 14:19:49;;;;;;;2.47;2.20;;;;;;;;;;4996915;28;20599;-75
2022/06/24 14:22:14;;;;;;;2.45;2.22;;;;;;;;;;4997369;28;20240;-75
2022/06/24 14:24:42;;;;;;;2.40;2.10;;;;;;;;;;5015131;28;20229;-76
2022/06/24 14:27:12;;;;;;;3.22;2.30;;;;;;;;;;4987527;28;20311;-73
2022/06/24 14:29:38;;;;;;;2.72;2.03;;;;;;;;;;5003088;28;20249;-74
2022/06/24 14:32:04;;;;;;;2.88;2.10;;;;;;;;;;4986456;28;20236;-73
2022/06/24 14:34:32;;;;;;;2.22;2.00;;;;;;;;;;5012751;28;20244;-74
2022/06/24 14:36:58;;;;;;;3.67;2.20;;;;;;;;;;5002008;28;20221;-75
2022/06/24 14:42:10;;;;;;;3.25;1.90;;;;;;;;;;4991564;28;20224;-74
2022/06/24 14:44:36;;;;;;;2.58;1.80;;;;;;;;;;5003990;28;20270;-75
2022/06/24 14:47:07;;;;;;;2.88;1.90;;;;;;;;;;4999571;28;20225;-75
2022/06/24 14:49:37;;;;;;;3.65;1.70;;;;;;;;;;5012953;28;20225;-74
2022/06/24 14:52:05;;;;;;;2.45;1.60;;;;;;;;;;5015599;28;20589;-74
2022/06/24 14:54:33;;;;;;;3.42;1.77;;;;;;;;;;5001888;28;20217;-75
2022/06/24 14:56:59;;;;;;;4.10;1.90;;;;;;;;;;4990701;28;20236;-75
2022/06/24 14:59:29;;;;;;;2.63;1.70;;;;;;;;;;5003038;28;20710;-75
2022/06/24 15:01:57;;;;;;;1.83;1.52;;;;;;;;;;4999922;28;20243;-74
2022/06/24 15:04:23;;;;;;;1.90;1.70;;;;;;;;;;5003319;28;20283;-73
2022/06/24 15:06:51;;;;;;;2.55;1.63;;;;;;;;;;5002078;28;20221;-74
2022/06/24 15:09:21;;;;;;;3.38;1.90;;;;;;;;;;5005361;28;20274;-73
2022/06/24 15:11:46;;;;;;;2.55;1.60;;;;;;;;;;5008395;28;20306;-73
2022/06/24 15:14:12;;;;;;;3.25;1.75;;;;;;;;;;5020489;28;20248;-73
2022/06/24 15:16:37;;;;;;;2.30;2.03;;;;;;;;;;4987283;28;20717;-71